Time;durP1;ratioP1;P1;durP2;ratioP2;P2;SDS_P1;SDS_P2;PMS_P1;PMS_P2;Temp;Humidity;BMP_temperature;BMP_pressure;BME280_temperature;BME280_humidity;BME280_pressure;Samples;Min_cycle;Max_cycle;Signal;HPM_P1;HPM_P2
2023/05/20 00:00:17;;;;;;;;;;;;;;;18.30;63.64;100265.22;4363686;32;32897;-88
2023/05/20 00:02:45;;;;;;;;;;;;;;;18.32;63.65;100267.78;4364937;32;33159;-88
2023/05/20 00:05:13;;;;;;;;;;;;;;;18.28;63.63;100267.16;4377373;32;33843;-88
2023/05/20 00:07:40;;;;;;;;;;;;;;;18.16;63.88;100266.16;4377280;32;32565;-88
2023/05/20 00:10:08;;;;;;;;;;;;;;;18.14;63.84;100273.44;4364700;32;33113;-88
2023/05/20 00:12:39;;;;;;;;;;;;;;;18.23;63.69;100271.97;4386902;32;33567;-88
2023/05/20 00:15:07;;;;;;;;;;;;;;;18.07;63.87;100276.59;4364981;32;32851;-88
2023/05/20 00:17:35;;;;;;;;;;;;;;;18.15;63.81;100284.97;4352694;32;33040;-88
2023/05/20 00:20:04;;;;;;;;;;;;;;;18.01;63.94;100283.22;4364793;32;33304;-88
2023/05/20 00:22:31;;;;;;;;;;;;;;;18.21;63.15;100283.69;4365078;32;36702;-88
2023/05/20 00:25:01;;;;;;;;;;;;;;;18.09;63.23;100274.72;4352440;32;32888;-88
2023/05/20 00:27:28;;;;;;;;;;;;;;;17.89;64.16;100273.34;4351741;32;32743;-89
2023/05/20 00:30:02;;;;;;;;;;;;;;;18.05;63.11;100268.72;4364591;32;32798;-88
2023/05/20 00:32:29;;;;;;;;;;;;;;;17.85;63.57;100272.72;4364775;32;33971;-88
2023/05/20 00:34:58;;;;;;;;;;;;;;;17.81;63.67;100265.00;4389541;32;34624;-88
2023/05/20 00:37:26;;;;;;;;;;;;;;;17.82;63.97;100272.91;4359615;32;32477;-88
2023/05/20 00:39:54;;;;;;;;;;;;;;;17.86;63.69;100273.56;4366922;32;33664;-87
2023/05/20 00:42:25;;;;;;;;;;;;;;;17.87;63.70;100276.12;4346400;32;34026;-87
2023/05/20 00:44:54;;;;;;;;;;;;;;;17.92;63.50;100273.16;4356039;32;33433;-88
2023/05/20 00:47:22;;;;;;;;;;;;;;;17.82;63.43;100266.72;4358320;32;32286;-88
2023/05/20 00:49:50;;;;;;;;;;;;;;;17.80;63.20;100272.16;4363099;32;34349;-88
2023/05/20 00:52:18;;;;;;;;;;;;;;;17.82;63.27;100277.41;4344950;32;33531;-88
2023/05/20 00:54:45;;;;;;;;;;;;;;;17.74;63.61;100269.03;4359139;32;32765;-87
2023/05/20 00:57:13;;;;;;;;;;;;;;;17.76;63.33;100275.13;4357417;32;32426;-87
2023/05/20 00:59:41;;;;;;;;;;;;;;;17.74;63.25;100275.22;4370916;32;34161;-87
2023/05/20 01:02:13;;;;;;;;;;;;;;;17.72;63.15;100277.13;4355965;32;33340;-88
2023/05/20 01:04:45;;;;;;;;;;;;;;;17.69;63.28;100273.78;4355581;32;33001;-87
2023/05/20 01:07:14;;;;;;;;;;;;;;;17.56;63.73;100274.56;4371856;32;33357;-87
2023/05/20 01:09:41;;;;;;;;;;;;;;;17.61;63.62;100280.50;4354075;32;33454;-87
2023/05/20 01:12:28;;;;;;;;;;;;;;;17.55;63.64;100277.34;4357265;32;32996;-87
2023/05/20 01:14:59;;;;;;;;;;;;;;;17.74;62.71;100285.91;4371439;32;33790;-87
2023/05/20 01:17:31;;;;;;;;;;;;;;;17.58;63.31;100286.03;4358545;32;32053;-87
2023/05/20 01:20:01;;;;;;;;;;;;;;;17.35;64.29;100294.66;4371340;32;34856;-88
2023/05/20 01:22:30;;;;;;;;;;;;;;;17.43;63.67;100297.69;4357595;32;33268;-87
2023/05/20 01:24:57;;;;;;;;;;;;;;;17.54;63.60;100289.84;4357939;32;32681;-87
2023/05/20 01:27:25;;;;;;;;;;;;;;;17.53;63.37;100296.16;4346311;32;33270;-87
2023/05/20 01:29:53;;;;;;;;;;;;;;;17.50;63.04;100293.66;4372448;32;33519;-86
2023/05/20 01:32:25;;;;;;;;;;;;;;;17.33;63.21;100296.59;4369002;32;34300;-88
2023/05/20 01:34:54;;;;;;;;;;;;;;;17.25;64.07;100293.53;4350005;32;34334;-88
2023/05/20 01:37:21;;;;;;;;;;;;;;;17.20;63.86;100291.16;4355439;32;32541;-87
2023/05/20 01:39:48;;;;;;;;;;;;;;;17.11;64.16;100297.06;4357612;32;33043;-87
2023/05/20 01:42:17;;;;;;;;;;;;;;;17.28;64.09;100298.66;4361603;32;33884;-87
2023/05/20 01:44:45;;;;;;;;;;;;;;;17.24;64.12;100298.03;4355769;32;34337;-87
2023/05/20 01:47:12;;;;;;;;;;;;;;;17.04;64.60;100296.62;4356525;32;31944;-86
2023/05/20 01:49:41;;;;;;;;;;;;;;;17.31;63.67;100301.16;4357289;32;33715;-90
2023/05/20 01:52:11;;;;;;;;;;;;;;;17.14;64.00;100304.91;4357376;32;33618;-90
2023/05/20 01:54:39;;;;;;;;;;;;;;;17.12;64.36;100298.78;4362315;32;33159;-88
2023/05/20 01:57:07;;;;;;;;;;;;;;;17.21;64.29;100294.69;4343044;32;32548;-90
2023/05/20 01:59:35;;;;;;;;;;;;;;;17.33;63.73;100293.91;4345117;32;33137;-88
2023/05/20 02:02:03;;;;;;;;;;;;;;;17.30;64.18;100294.09;4345945;32;34006;-88
2023/05/20 02:04:31;;;;;;;;;;;;;;;16.89;66.00;100286.88;4368417;32;35337;-87
2023/05/20 02:06:59;;;;;;;;;;;;;;;17.01;65.45;100291.47;4345108;32;32203;-87
2023/05/20 02:09:27;;;;;;;;;;;;;;;17.01;65.49;100287.94;4357626;32;32903;-88
2023/05/20 02:11:55;;;;;;;;;;;;;;;17.09;65.30;100298.97;4362336;32;34130;-87
2023/05/20 02:14:23;;;;;;;;;;;;;;;17.04;65.65;100296.62;4354327;32;33436;-88
2023/05/20 02:16:51;;;;;;;;;;;;;;;17.09;65.50;100293.63;4356121;32;33293;-88
2023/05/20 02:19:22;;;;;;;;;;;;;;;17.13;65.61;100292.47;4356891;32;34104;-87
2023/05/20 02:21:50;;;;;;;;;;;;;;;17.27;65.03;100291.63;4343876;32;33011;-87
2023/05/20 02:24:19;;;;;;;;;;;;;;;17.17;65.53;100288.66;4359001;32;33763;-87
2023/05/20 02:26:49;;;;;;;;;;;;;;;17.23;65.30;100290.09;4358733;32;33486;-87
2023/05/20 02:29:20;;;;;;;;;;;;;;;17.06;65.94;100286.69;4342501;32;33335;-87
2023/05/20 02:31:49;;;;;;;;;;;;;;;17.03;66.12;100283.34;4356290;32;33383;-87
2023/05/20 02:34:16;;;;;;;;;;;;;;;16.97;67.31;100295.25;4357792;32;33861;-87
2023/05/20 02:36:44;;;;;;;;;;;;;;;17.02;67.76;100285.16;4370029;32;33199;-87
2023/05/20 02:39:12;;;;;;;;;;;;;;;17.30;67.23;100289.62;4344652;32;32600;-86
2023/05/20 02:41:39;;;;;;;;;;;;;;;17.30;67.94;100286.09;4369562;32;32950;-87
2023/05/20 02:44:08;;;;;;;;;;;;;;;17.29;68.67;100285.22;4356368;32;33885;-87
2023/05/20 02:46:36;;;;;;;;;;;;;;;17.49;68.10;100286.62;4356368;32;33108;-87
2023/05/20 02:49:04;;;;;;;;;;;;;;;17.49;68.54;100286.62;4354709;32;33823;-87
2023/05/20 02:51:32;;;;;;;;;;;;;;;17.49;68.57;100291.97;4351508;32;33425;-87
2023/05/20 02:54:00;;;;;;;;;;;;;;;17.68;68.20;100278.28;4344354;32;33869;-87
2023/05/20 02:56:29;;;;;;;;;;;;;;;17.82;67.47;100277.41;4354297;32;32627;-87
2023/05/20 02:58:56;;;;;;;;;;;;;;;17.90;66.85;100275.94;4356608;32;32878;-87
2023/05/20 03:01:24;;;;;;;;;;;;;;;17.97;66.97;100276.38;4362466;32;36063;-88
2023/05/20 03:03:52;;;;;;;;;;;;;;;18.01;66.26;100283.22;4349914;32;33963;-89
2023/05/20 03:06:21;;;;;;;;;;;;;;;18.01;66.04;100277.03;4351110;32;33207;-90
2023/05/20 03:08:50;;;;;;;;;;;;;;;18.24;65.08;100288.84;4338787;32;33998;-89
2023/05/20 03:11:18;;;;;;;;;;;;;;;18.23;64.92;100289.78;4338777;32;33182;-90
2023/05/20 03:13:47;;;;;;;;;;;;;;;18.44;64.26;100280.31;4351104;32;32998;-89
2023/05/20 03:16:15;;;;;;;;;;;;;;;18.33;64.52;100272.19;4338621;32;32533;-90
2023/05/20 03:18:45;;;;;;;;;;;;;;;18.40;63.89;100289.50;4339055;32;32605;-90
2023/05/20 03:21:13;;;;;;;;;;;;;;;18.43;63.91;100284.81;4338807;32;33683;-89
2023/05/20 03:23:40;;;;;;;;;;;;;;;18.33;64.14;100294.44;4352025;32;32668;-90
2023/05/20 03:26:08;;;;;;;;;;;;;;;18.12;64.37;100291.37;4356100;32;32123;-89
2023/05/20 03:28:36;;;;;;;;;;;;;;;17.92;65.40;100291.84;4333030;33;32409;-89
2023/05/20 03:31:05;;;;;;;;;;;;;;;18.31;64.01;100300.81;4358582;32;32852;-89
2023/05/20 03:33:33;;;;;;;;;;;;;;;18.12;64.80;100301.22;4346160;32;33091;-89
2023/05/20 03:36:02;;;;;;;;;;;;;;;18.33;63.84;100306.94;4346681;32;32151;-89
2023/05/20 03:38:33;;;;;;;;;;;;;;;18.28;63.84;100306.41;4356043;32;32994;-87
2023/05/20 03:41:04;;;;;;;;;;;;;;;18.40;63.70;100302.88;4368639;32;34062;-87
2023/05/20 03:46:12;;;;;;;;;;;;;;;18.85;62.25;100303.38;4378588;32;34149;-87
2023/05/20 03:48:40;;;;;;;;;;;;;;;18.60;62.63;100307.69;4370346;32;34032;-88
2023/05/20 03:51:07;;;;;;;;;;;;;;;18.50;62.70;100298.59;4352749;32;34175;-87
2023/05/20 03:53:39;;;;;;;;;;;;;;;18.69;62.51;100306.25;4365086;32;32903;-87
2023/05/20 03:56:07;;;;;;;;;;;;;;;18.87;61.83;100304.13;4389225;32;32889;-87
2023/05/20 03:58:37;;;;;;;;;;;;;;;19.07;60.87;100300.88;4380678;32;35546;-87
2023/05/20 04:01:06;;;;;;;;;;;;;;;18.63;62.59;100307.50;4365181;32;33018;-87
2023/05/20 04:03:33;;;;;;;;;;;;;;;18.83;62.08;100313.31;4370485;32;34442;-87
2023/05/20 04:06:03;;;;;;;;;;;;;;;19.02;61.23;100312.88;4365744;32;33569;-87
2023/05/20 04:08:30;;;;;;;;;;;;;;;18.96;61.46;100307.97;4365207;32;34886;-87
2023/05/20 04:10:58;;;;;;;;;;;;;;;19.08;61.22;100315.97;4365050;32;33131;-87
2023/05/20 04:13:27;;;;;;;;;;;;;;;19.32;60.44;100315.19;4352688;32;33640;-87
2023/05/20 04:15:57;;;;;;;;;;;;;;;18.95;61.46;100317.81;4353059;32;32699;-87
2023/05/20 04:18:28;;;;;;;;;;;;;;;18.77;61.70;100327.12;4377291;32;33232;-87
2023/05/20 04:20:56;;;;;;;;;;;;;;;19.10;60.97;100322.09;4372154;32;33336;-87
2023/05/20 04:23:23;;;;;;;;;;;;;;;19.25;59.75;100316.59;4364974;32;33554;-86
2023/05/20 04:25:51;;;;;;;;;;;;;;;19.25;60.23;100322.81;4379872;32;32204;-87
2023/05/20 04:28:22;;;;;;;;;;;;;;;18.98;nan;100322.94;4374659;32;33782;-86
2023/05/20 04:30:59;;;;;;;;;;;;;;;18.90;60.89;100333.34;4365020;32;34225;-91
2023/05/20 04:33:26;;;;;;;;;;;;;;;19.36;59.14;100327.38;4368738;32;32956;-89
2023/05/20 04:35:59;;;;;;;;;;;;;;;19.50;58.49;100339.78;4355560;32;32135;-91
2023/05/20 04:38:29;;;;;;;;;;;;;;;19.48;58.87;100325.66;4380031;32;34253;-88
2023/05/20 04:40:59;;;;;;;;;;;;;;;19.45;58.47;100337.44;4365371;32;33502;-89
2023/05/20 04:43:30;;;;;;;;;;;;;;;19.64;57.41;100337.84;4368326;32;32915;-88
2023/05/20 04:46:00;;;;;;;;;;;;;;;19.96;55.89;100337.31;4368377;32;32871;-89
2023/05/20 04:48:48;;;;;;;;;;;;;;;19.71;57.12;100342.78;4366679;32;32988;-88
2023/05/20 04:51:16;;;;;;;;;;;;;;;19.49;57.51;100338.94;4358531;32;32996;-88
2023/05/20 04:53:45;;;;;;;;;;;;;;;19.67;57.18;100337.62;4356245;32;34016;-88
2023/05/20 04:56:14;;;;;;;;;;;;;;;19.76;57.10;100340.62;4355593;32;33526;-88
2023/05/20 04:58:51;;;;;;;;;;;;;;;19.79;56.82;100346.59;4370798;32;35789;-88
2023/05/20 05:01:20;;;;;;;;;;;;;;;19.86;56.91;100341.66;4354919;32;33660;-88
2023/05/20 05:03:49;;;;;;;;;;;;;;;19.72;57.41;100333.78;4369942;32;33907;-89
2023/05/20 05:06:17;;;;;;;;;;;;;;;19.59;57.35;100328.41;4394251;32;32561;-90
2023/05/20 05:08:46;;;;;;;;;;;;;;;20.14;56.00;100325.22;4365889;32;34840;-88
2023/05/20 05:11:20;;;;;;;;;;;;;;;20.09;55.87;100322.03;4375101;32;33974;-87
2023/05/20 05:13:48;;;;;;;;;;;;;;;20.31;55.68;100323.09;4386816;32;33551;-88
2023/05/20 05:16:17;;;;;;;;;;;;;;;20.17;55.12;100324.97;4384737;32;33452;-89
2023/05/20 05:18:45;;;;;;;;;;;;;;;19.96;56.46;100331.97;4371482;32;34217;-88
2023/05/20 05:21:15;;;;;;;;;;;;;;;19.80;56.52;100329.56;4370798;32;33810;-89
2023/05/20 05:23:50;;;;;;;;;;;;;;;20.07;55.45;100332.00;4390013;32;32874;-88
2023/05/20 05:26:19;;;;;;;;;;;;;;;20.32;54.97;100332.84;4356955;32;33878;-90
2023/05/20 05:32:39;;;;;;;;;;;;;;;20.60;55.08;100343.19;4369758;32;35107;-90
2023/05/20 05:35:07;;;;;;;;;;;;;;;20.43;54.71;100338.25;4380485;32;33773;-90
2023/05/20 05:37:39;;;;;;;;;;;;;;;20.63;54.51;100351.03;4353996;32;33189;-90
2023/05/20 05:40:11;;;;;;;;;;;;;;;20.40;55.02;100339.34;4366195;32;34260;-90
2023/05/20 05:42:40;;;;;;;;;;;;;;;20.30;55.31;100329.44;4378248;32;34589;-91
2023/05/20 05:45:10;;;;;;;;;;;;;;;20.70;54.83;100338.00;4378630;32;34010;-90
2023/05/20 05:47:44;;;;;;;;;;;;;;;21.19;53.63;100345.75;4367173;32;32264;-90
2023/05/20 05:50:13;;;;;;;;;;;;;;;21.20;53.12;100336.72;4377845;32;33276;-90
2023/05/20 05:52:41;;;;;;;;;;;;;;;21.55;51.74;100351.84;4378114;32;33134;-90
2023/05/20 05:55:11;;;;;;;;;;;;;;;20.86;52.52;100353.78;4390618;32;33691;-90
2023/05/20 05:57:44;;;;;;;;;;;;;;;20.95;52.29;100358.41;4365871;32;32315;-88
2023/05/20 06:00:23;;;;;;;;;;;;;;;21.14;51.93;100353.31;4359961;32;33328;-88
2023/05/20 06:02:55;;;;;;;;;;;;;;;21.07;52.03;100351.22;4377122;32;34278;-87
2023/05/20 06:05:24;;;;;;;;;;;;;;;21.30;51.81;100346.72;4364944;32;32033;-87
2023/05/20 06:07:55;;;;;;;;;;;;;;;21.40;51.79;100342.34;4377186;32;33330;-88
2023/05/20 06:10:24;;;;;;;;;;;;;;;21.40;51.96;100331.59;4352903;32;33901;-89
2023/05/20 06:16:09;;;;;;;;;;;;;;;21.66;50.69;100343.78;4379435;32;33322;-89
2023/05/20 06:18:37;;;;;;;;;;;;;;;21.61;51.19;100332.56;4365731;32;33755;-89
2023/05/20 06:21:06;;;;;;;;;;;;;;;21.92;49.86;100338.09;4365185;32;33072;-89
2023/05/20 06:23:44;;;;;;;;;;;;;;;21.05;52.08;100337.06;4352328;32;33054;-93
2023/05/20 06:26:13;;;;;;;;;;;;;;;21.88;50.48;100331.28;4365641;32;32688;-93
2023/05/20 06:29:05;;;;;;;;;;;;;;;21.78;50.83;100333.00;4352529;32;33548;-91
2023/05/20 06:31:35;;;;;;;;;;;;;;;21.97;50.01;100330.50;4363824;32;32864;-91
2023/05/20 06:34:11;;;;;;;;;;;;;;;22.07;49.54;100328.75;4352125;32;34321;-91
2023/05/20 06:36:42;;;;;;;;;;;;;;;21.94;49.68;100336.16;4339309;32;33077;-93
2023/05/20 06:39:14;;;;;;;;;;;;;;;21.37;50.82;100342.63;4338090;32;33396;-92
2023/05/20 06:42:04;;;;;;;;;;;;;;;21.56;50.02;100345.53;4349267;32;33984;-93
2023/05/20 06:48:15;;;;;;;;;;;;;;;22.45;48.48;100330.09;4354073;32;33786;-93
2023/05/20 06:50:50;;;;;;;;;;;;;;;22.29;48.93;100329.69;4360872;32;33195;-91
2023/05/20 06:53:34;;;;;;;;;;;;;;;22.32;48.26;100329.44;4356466;32;33845;-92
2023/05/20 06:56:30;;;;;;;;;;;;;;;22.68;47.54;100318.22;4377142;32;33732;-91
2023/05/20 06:59:12;;;;;;;;;;;;;;;22.77;47.24;100313.03;4377925;32;33097;-91
2023/05/20 07:02:22;;;;;;;;;;;;;;;22.40;47.57;100322.41;4373770;32;33815;-92
2023/05/20 07:05:03;;;;;;;;;;;;;;;22.65;46.70;100314.97;4338969;32;33287;-92
2023/05/20 07:07:43;;;;;;;;;;;;;;;23.21;46.52;100307.31;4343952;32;32899;-92
2023/05/20 07:10:37;;;;;;;;;;;;;;;23.24;46.36;100307.06;4361648;32;33276;-92
2023/05/20 07:13:42;;;;;;;;;;;;;;;22.87;46.52;100324.72;4364203;32;31725;-91
2023/05/20 07:16:40;;;;;;;;;;;;;;;23.14;47.05;100308.88;4386639;32;34632;-91
2023/05/20 07:19:35;;;;;;;;;;;;;;;23.21;45.75;100301.94;4360789;32;34693;-92
2023/05/20 07:22:15;;;;;;;;;;;;;;;23.65;46.36;100301.69;4338389;32;33522;-91
2023/05/20 07:25:06;;;;;;;;;;;;;;;23.38;45.02;100300.44;4372160;32;33037;-93
2023/05/20 07:27:45;;;;;;;;;;;;;;;23.24;44.41;100298.97;4379278;32;33416;-94
2023/05/20 07:30:17;;;;;;;;;;;;;;;23.22;45.75;100292.03;4365252;32;33353;-92
2023/05/20 07:32:46;;;;;;;;;;;;;;;22.96;45.76;100286.25;4366110;32;33368;-92
2023/05/20 07:35:37;;;;;;;;;;;;;;;23.20;45.10;100292.16;4371834;32;32977;-93
2023/05/20 07:41:31;;;;;;;;;;;;;;;23.58;46.08;100293.25;4377692;32;20382;-92
2023/05/20 07:44:25;;;;;;;;;;;;;;;23.96;44.24;100286.25;4358748;32;32584;-93
2023/05/20 07:50:13;;;;;;;;;;;;;;;24.22;44.42;100295.50;4361223;32;33781;-92
2023/05/20 07:52:43;;;;;;;;;;;;;;;24.10;45.97;100283.12;4344968;32;32947;-92
2023/05/20 07:55:25;;;;;;;;;;;;;;;24.47;41.83;100285.97;4351361;32;32573;-92
2023/05/20 07:57:55;;;;;;;;;;;;;;;24.08;44.48;100278.91;4353455;32;31714;-92
2023/05/20 08:00:26;;;;;;;;;;;;;;;24.23;43.36;100288.25;4349117;32;34528;-92
2023/05/20 08:03:06;;;;;;;;;;;;;;;24.02;43.38;100291.06;4338350;32;34032;-92
2023/05/20 08:06:03;;;;;;;;;;;;;;;24.27;44.15;100285.13;4357002;32;32871;-92
2023/05/20 08:08:55;;;;;;;;;;;;;;;24.51;43.69;100279.31;4351021;32;32464;-93
2023/05/20 08:11:26;;;;;;;;;;;;;;;24.64;43.98;100270.91;4354194;32;33232;-93
2023/05/20 08:14:31;;;;;;;;;;;;;;;24.36;42.73;100288.84;4367867;32;34922;-92
2023/05/20 08:17:15;;;;;;;;;;;;;;;24.42;42.60;100273.91;4326764;32;32601;-92
2023/05/20 08:20:07;;;;;;;;;;;;;;;24.44;43.74;100274.63;4351485;32;32148;-91
2023/05/20 08:22:59;;;;;;;;;;;;;;;24.45;43.10;100271.78;4362678;32;34041;-91
2023/05/20 08:25:51;;;;;;;;;;;;;;;24.46;43.13;100264.53;4363551;32;32843;-91
2023/05/20 08:28:32;;;;;;;;;;;;;;;24.62;43.16;100267.47;4359843;32;33984;-92
2023/05/20 08:31:13;;;;;;;;;;;;;;;24.63;42.11;100263.78;4353468;32;32244;-92
2023/05/20 08:33:57;;;;;;;;;;;;;;;25.04;43.59;100267.06;4336313;32;32894;-91
2023/05/20 08:36:26;;;;;;;;;;;;;;;24.88;42.34;100262.28;4343423;32;34185;-92
2023/05/20 08:39:15;;;;;;;;;;;;;;;24.63;42.51;100271.88;4339286;32;32873;-92
2023/05/20 08:42:24;;;;;;;;;;;;;;;24.72;42.38;100256.66;4354899;32;33596;-92
2023/05/20 08:45:13;;;;;;;;;;;;;;;24.57;42.05;100264.37;4344158;32;32774;-91
2023/05/20 08:48:43;;;;;;;;;;;;;;;24.59;42.28;100273.16;4343081;32;34738;-92
2023/05/20 08:51:14;;;;;;;;;;;;;;;24.87;41.22;100254.31;4337605;33;32863;-91
2023/05/20 08:54:11;;;;;;;;;;;;;;;24.73;42.82;100253.78;4344918;33;32352;-92
2023/05/20 08:56:59;;;;;;;;;;;;;;;25.13;40.89;100257.25;4372181;32;34060;-91
2023/05/20 08:59:32;;;;;;;;;;;;;;;24.83;41.83;100252.91;4366710;32;33992;-88
2023/05/20 09:02:02;;;;;;;;;;;;;;;24.81;41.21;100254.91;4383112;32;34121;-87
2023/05/20 09:04:33;;;;;;;;;;;;;;;25.39;41.58;100251.97;4368792;32;32163;-89
2023/05/20 09:09:47;;;;;;;;;;;;;;;25.49;40.47;100244.66;4380459;32;33866;-87
2023/05/20 09:12:19;;;;;;;;;;;;;;;25.37;41.07;100245.88;4394348;32;34038;-89
2023/05/20 09:14:47;;;;;;;;;;;;;;;25.29;41.75;100250.16;4374095;32;34179;-89
2023/05/20 09:17:22;;;;;;;;;;;;;;;25.24;42.84;100254.34;4389015;32;32995;-89
2023/05/20 09:19:53;;;;;;;;;;;;;;;25.69;42.58;100246.25;4392631;32;33699;-88
2023/05/20 09:22:26;;;;;;;;;;;;;;;26.27;41.22;100237.66;4369184;32;33902;-91
2023/05/20 09:24:57;;;;;;;;;;;;;;;25.73;41.09;100236.81;4370057;32;32856;-89
2023/05/20 09:27:28;;;;;;;;;;;;;;;26.21;39.84;100242.84;4373787;32;33634;-89
2023/05/20 09:29:57;;;;;;;;;;;;;;;26.10;39.54;100243.94;4362812;32;33383;-89
2023/05/20 09:32:28;;;;;;;;;;;;;;;26.15;42.26;100235.34;4367408;32;32998;-90
2023/05/20 09:35:00;;;;;;;;;;;;;;;25.93;41.77;100237.53;4374300;32;32188;-89
2023/05/20 09:37:30;;;;;;;;;;;;;;;26.54;39.74;100216.91;4392265;32;34893;-88
2023/05/20 09:40:02;;;;;;;;;;;;;;;26.84;39.94;100218.22;4381099;32;33755;-91
2023/05/20 09:42:55;;;;;;;;;;;;;;;26.98;37.13;100211.34;4361004;32;33739;-92
2023/05/20 09:45:54;;;;;;;;;;;;;;;26.50;38.88;100207.38;4362942;32;32255;-91
2023/05/20 09:48:37;;;;;;;;;;;;;;;26.26;39.29;100211.59;4367927;32;33928;-92
2023/05/20 09:51:33;;;;;;;;;;;;;;;26.74;39.23;100191.25;4390278;32;34834;-92
2023/05/20 09:54:19;;;;;;;;;;;;;;;26.83;38.66;100191.31;4352577;32;33217;-93
2023/05/20 09:57:14;;;;;;;;;;;;;;;26.85;38.70;100189.28;4338281;33;33987;-92
2023/05/20 09:59:56;;;;;;;;;;;;;;;26.80;38.30;100187.06;4366023;32;33960;-89
2023/05/20 10:02:26;;;;;;;;;;;;;;;26.87;38.65;100179.09;4363797;32;33556;-93
2023/05/20 10:06:01;;;;;;;;;;;;;;;26.51;38.51;100182.84;4337577;32;33300;-92
2023/05/20 10:12:46;;;;;;;;;;;;;;;26.73;37.65;100186.88;4364188;32;34886;-91
2023/05/20 10:15:26;;;;;;;;;;;;;;;26.69;37.23;100171.94;4347651;32;32873;-95
2023/05/20 10:18:26;;;;;;;;;;;;;;;26.99;36.68;100175.09;4334787;33;35469;-94
2023/05/20 10:21:00;;;;;;;;;;;;;;;26.92;35.52;100171.34;4336423;33;32804;-93
2023/05/20 10:24:04;;;;;;;;;;;;;;;27.00;36.19;100172.22;4324102;33;34686;-93
2023/05/20 10:26:37;;;;;;;;;;;;;;;27.27;36.29;100162.19;4323271;33;33147;-95
2023/05/20 10:29:25;;;;;;;;;;;;;;;27.77;34.48;100159.41;4353742;32;34546;-93
2023/05/20 10:32:29;;;;;;;;;;;;;;;27.65;36.38;100159.88;4362235;32;33433;-93
2023/05/20 10:35:22;;;;;;;;;;;;;;;27.40;35.00;100164.41;4375340;32;34018;-93
2023/05/20 10:38:08;;;;;;;;;;;;;;;27.89;34.85;100154.47;4374718;32;33454;-95
2023/05/20 10:40:45;;;;;;;;;;;;;;;27.89;34.54;100146.34;4384709;32;33002;-93
2023/05/20 10:43:35;;;;;;;;;;;;;;;27.75;33.83;100147.00;4386418;32;31738;-96
2023/05/20 10:46:36;;;;;;;;;;;;;;;27.81;33.90;100143.62;4328311;33;33337;-92
2023/05/20 10:49:25;;;;;;;;;;;;;;;27.73;33.32;100141.78;4324612;33;33001;-95
2023/05/20 10:52:06;;;;;;;;;;;;;;;28.30;32.52;100149.84;4322243;33;33039;-94
2023/05/20 10:54:47;;;;;;;;;;;;;;;27.96;32.71;100141.06;4315633;33;32670;-93
2023/05/20 10:57:42;;;;;;;;;;;;;;;27.49;33.42;100148.00;4371679;32;35885;-91
2023/05/20 11:00:27;;;;;;;;;;;;;;;27.57;32.59;100141.72;4388790;32;34302;-94
2023/05/20 11:04:15;;;;;;;;;;;;;;;27.86;32.94;100134.97;4352575;32;34849;-94
2023/05/20 11:06:59;;;;;;;;;;;;;;;28.04;31.61;100132.91;4324155;33;31975;-95
2023/05/20 11:09:39;;;;;;;;;;;;;;;28.28;31.80;100124.72;4323289;33;32711;-92
2023/05/20 11:12:28;;;;;;;;;;;;;;;28.88;31.15;100130.66;4321954;33;32884;-94
2023/05/20 11:14:58;;;;;;;;;;;;;;;28.62;30.66;100120.91;4337673;33;34404;-96
2023/05/20 11:17:53;;;;;;;;;;;;;;;28.41;31.73;100123.38;4343495;32;32614;-89
2023/05/20 11:20:24;;;;;;;;;;;;;;;28.54;30.21;100124.53;4345153;32;33665;-91
2023/05/20 11:22:58;;;;;;;;;;;;;;;28.49;31.23;100117.91;4361914;32;33400;-93
2023/05/20 11:25:39;;;;;;;;;;;;;;;28.36;31.12;100112.19;4362960;32;33675;-94
2023/05/20 11:32:41;;;;;;;;;;;;;;;28.92;30.75;100118.41;4350689;33;35991;-93
2023/05/20 11:35:36;;;;;;;;;;;;;;;28.40;29.83;100103.50;4372294;32;35710;-92
2023/05/20 11:38:18;;;;;;;;;;;;;;;28.37;29.92;100111.16;4369033;32;33257;-92
2023/05/20 11:40:58;;;;;;;;;;;;;;;28.94;28.50;100102.75;4363975;32;31440;-91
2023/05/20 11:46:04;;;;;;;;;;;;;;;29.22;29.05;100108.56;4370793;32;33880;-86
2023/05/20 11:48:32;;;;;;;;;;;;;;;28.71;29.71;100106.25;4346538;32;33539;-91
2023/05/20 11:51:04;;;;;;;;;;;;;;;28.87;29.53;100101.78;4363233;32;32859;-88
2023/05/20 11:53:34;;;;;;;;;;;;;;;29.06;29.16;100101.37;4358725;32;34857;-89
2023/05/20 11:56:09;;;;;;;;;;;;;;;28.90;29.42;100104.13;4358075;32;33993;-87
2023/05/20 11:58:45;;;;;;;;;;;;;;;28.60;31.55;100106.66;4346651;32;33995;-87
2023/05/20 12:01:12;;;;;;;;;;;;;;;28.22;31.10;100100.12;4367740;32;33833;-88
2023/05/20 12:03:48;;;;;;;;;;;;;;;29.29;30.42;100085.94;4361866;32;33781;-87
2023/05/20 12:06:19;;;;;;;;;;;;;;;29.14;30.96;100098.59;4347865;32;33576;-88
2023/05/20 12:08:49;;;;;;;;;;;;;;;28.75;31.91;100095.91;4356531;32;33318;-92
2023/05/20 12:11:54;;;;;;;;;;;;;;;28.76;30.70;100090.28;4351006;32;33079;-91
2023/05/20 12:14:27;;;;;;;;;;;;;;;28.72;32.13;100098.94;4359245;32;33484;-91
2023/05/20 12:16:56;;;;;;;;;;;;;;;28.53;31.58;100101.09;4349673;32;32602;-91
2023/05/20 12:19:25;;;;;;;;;;;;;;;28.15;32.25;100094.53;4345800;32;33004;-91
2023/05/20 12:21:53;;;;;;;;;;;;;;;28.57;31.78;100099.69;4344880;32;33224;-91
2023/05/20 12:24:21;;;;;;;;;;;;;;;28.99;31.11;100090.34;4346667;32;32964;-90
2023/05/20 12:26:58;;;;;;;;;;;;;;;28.38;32.07;100093.84;4358971;32;35071;-90
2023/05/20 12:29:28;;;;;;;;;;;;;;;28.88;33.17;100087.16;4357911;32;33483;-89
2023/05/20 12:31:56;;;;;;;;;;;;;;;28.87;32.91;100082.78;4369671;32;34341;-89
2023/05/20 12:34:24;;;;;;;;;;;;;;;29.37;30.07;100086.88;4346113;32;33325;-87
2023/05/20 12:36:53;;;;;;;;;;;;;;;29.13;30.20;100079.75;4352081;32;33500;-88
2023/05/20 12:39:23;;;;;;;;;;;;;;;29.10;30.64;100075.50;4385628;32;34214;-87
2023/05/20 12:41:55;;;;;;;;;;;;;;;28.36;32.63;100088.59;4356908;32;33679;-88
2023/05/20 12:44:32;;;;;;;;;;;;;;;28.70;32.05;100080.13;4390740;32;34631;-88
2023/05/20 12:47:01;;;;;;;;;;;;;;;28.58;32.12;100076.09;4374291;32;34644;-89
2023/05/20 12:49:31;;;;;;;;;;;;;;;28.99;31.45;100074.03;4392631;32;34887;-87
2023/05/20 12:54:47;;;;;;;;;;;;;;;28.72;31.22;100067.22;4379690;32;32703;-89
2023/05/20 12:57:17;;;;;;;;;;;;;;;28.59;32.00;100075.09;4384167;32;34009;-89
2023/05/20 12:59:47;;;;;;;;;;;;;;;28.73;31.76;100074.34;4365785;32;34382;-90
2023/05/20 13:02:15;;;;;;;;;;;;;;;28.76;31.33;100056.81;4370920;32;32293;-90
2023/05/20 13:04:43;;;;;;;;;;;;;;;29.13;31.23;100053.38;4377754;32;34242;-89
2023/05/20 13:07:22;;;;;;;;;;;;;;;28.85;31.41;100055.75;4370703;32;33771;-87
2023/05/20 13:09:50;;;;;;;;;;;;;;;29.08;31.26;100061.25;4380833;32;32675;-95
2023/05/20 13:12:29;;;;;;;;;;;;;;;28.72;31.26;100058.19;4370424;32;33063;-91
2023/05/20 13:18:22;;;;;;;;;;;;;;;28.86;32.03;100046.56;4357391;32;32426;-91
2023/05/20 13:21:08;;;;;;;;;;;;;;;28.97;31.32;100039.94;4331166;33;33722;-93
2023/05/20 13:24:01;;;;;;;;;;;;;;;29.26;32.64;100048.19;4325663;33;32293;-91
2023/05/20 13:27:01;;;;;;;;;;;;;;;28.74;32.06;100037.97;4371753;32;33173;-92
2023/05/20 13:29:45;;;;;;;;;;;;;;;29.34;31.63;100029.09;4367426;32;33352;-91
2023/05/20 13:32:19;;;;;;;;;;;;;;;29.05;31.32;100034.41;4355968;32;33349;-94
2023/05/20 13:35:15;;;;;;;;;;;;;;;28.61;32.11;100028.72;4378359;32;32184;-92
2023/05/20 13:37:57;;;;;;;;;;;;;;;28.53;32.52;100035.91;4371741;32;33965;-95
2023/05/20 13:40:58;;;;;;;;;;;;;;;28.97;33.00;100031.78;4336188;32;33167;-92
2023/05/20 13:43:47;;;;;;;;;;;;;;;28.26;32.50;100039.88;4359550;32;33119;-92
2023/05/20 13:46:40;;;;;;;;;;;;;;;28.16;31.43;100033.81;4349211;32;33684;-91
2023/05/20 13:49:08;;;;;;;;;;;;;;;27.83;32.86;100032.22;4345024;32;33023;-91
2023/05/20 13:51:58;;;;;;;;;;;;;;;28.42;31.85;100022.69;4332212;32;33014;-92
2023/05/20 14:01:00;;;;;;;;;;;;;;;28.06;31.73;100023.16;4339583;32;33777;-92
2023/05/20 14:03:43;;;;;;;;;;;;;;;28.22;31.54;100019.53;4335847;32;33396;-93